sensor_id;sensor_type;location;lat;lon;timestamp;temperature;humidity
68511;SHT31;55512;50.102;19.958;2023-04-28T00:02:00;6.05;58.08
68511;SHT31;55512;50.102;19.958;2023-04-28T00:04:26;6.04;58.32
68511;SHT31;55512;50.102;19.958;2023-04-28T00:06:51;6.04;58.07
68511;SHT31;55512;50.102;19.958;2023-04-28T00:09:17;6.07;57.89
68511;SHT31;55512;50.102;19.958;2023-04-28T00:11:45;6.11;57.89
68511;SHT31;55512;50.102;19.958;2023-04-28T00:14:11;6.15;58.08
68511;SHT31;55512;50.102;19.958;2023-04-28T00:16:37;6.18;58.39
68511;SHT31;55512;50.102;19.958;2023-04-28T00:19:03;6.21;58.53
68511;SHT31;55512;50.102;19.958;2023-04-28T00:21:28;6.23;58.57
68511;SHT31;55512;50.102;19.958;2023-04-28T00:23:54;6.24;58.72
68511;SHT31;55512;50.102;19.958;2023-04-28T00:26:19;6.26;58.82
68511;SHT31;55512;50.102;19.958;2023-04-28T00:28:45;6.27;58.94
68511;SHT31;55512;50.102;19.958;2023-04-28T00:31:11;6.27;59.05
68511;SHT31;55512;50.102;19.958;2023-04-28T00:33:38;6.23;59.22
68511;SHT31;55512;50.102;19.958;2023-04-28T00:36:05;6.25;59.19
68511;SHT31;55512;50.102;19.958;2023-04-28T00:38:31;6.26;59.18
68511;SHT31;55512;50.102;19.958;2023-04-28T00:40:56;6.29;59.20
68511;SHT31;55512;50.102;19.958;2023-04-28T00:43:22;6.29;59.25
68511;SHT31;55512;50.102;19.958;2023-04-28T00:45:48;6.30;59.36
68511;SHT31;55512;50.102;19.958;2023-04-28T00:48:15;6.30;59.41
68511;SHT31;55512;50.102;19.958;2023-04-28T00:50:41;6.30;59.25
68511;SHT31;55512;50.102;19.958;2023-04-28T00:53:12;6.32;58.82
68511;SHT31;55512;50.102;19.958;2023-04-28T00:55:38;6.34;58.79
68511;SHT31;55512;50.102;19.958;2023-04-28T00:58:05;6.32;58.90
68511;SHT31;55512;50.102;19.958;2023-04-28T01:00:32;6.31;59.06
68511;SHT31;55512;50.102;19.958;2023-04-28T01:02:58;6.29;59.25
68511;SHT31;55512;50.102;19.958;2023-04-28T01:05:24;6.27;59.01
68511;SHT31;55512;50.102;19.958;2023-04-28T01:07:50;6.26;58.37
68511;SHT31;55512;50.102;19.958;2023-04-28T01:10:16;6.26;58.10
68511;SHT31;55512;50.102;19.958;2023-04-28T01:12:42;6.26;58.40
68511;SHT31;55512;50.102;19.958;2023-04-28T01:15:08;6.23;58.90
68511;SHT31;55512;50.102;19.958;2023-04-28T01:17:41;6.20;59.24
68511;SHT31;55512;50.102;19.958;2023-04-28T01:20:07;6.18;59.29
68511;SHT31;55512;50.102;19.958;2023-04-28T01:22:33;6.19;59.37
68511;SHT31;55512;50.102;19.958;2023-04-28T01:24:59;6.18;59.69
68511;SHT31;55512;50.102;19.958;2023-04-28T01:27:24;6.16;59.91
68511;SHT31;55512;50.102;19.958;2023-04-28T01:29:50;6.13;59.98
68511;SHT31;55512;50.102;19.958;2023-04-28T01:32:16;6.11;59.80
68511;SHT31;55512;50.102;19.958;2023-04-28T01:34:41;6.11;59.87
68511;SHT31;55512;50.102;19.958;2023-04-28T01:37:06;6.12;59.98
68511;SHT31;55512;50.102;19.958;2023-04-28T01:39:32;6.12;60.08
68511;SHT31;55512;50.102;19.958;2023-04-28T01:41:58;6.14;60.14
68511;SHT31;55512;50.102;19.958;2023-04-28T01:44:24;6.13;60.27
68511;SHT31;55512;50.102;19.958;2023-04-28T01:46:49;6.15;60.31
68511;SHT31;55512;50.102;19.958;2023-04-28T01:49:15;6.18;60.45
68511;SHT31;55512;50.102;19.958;2023-04-28T01:51:40;6.19;60.54
68511;SHT31;55512;50.102;19.958;2023-04-28T01:54:06;6.21;60.63
68511;SHT31;55512;50.102;19.958;2023-04-28T01:56:32;6.21;60.74
68511;SHT31;55512;50.102;19.958;2023-04-28T01:58:57;6.21;60.80
68511;SHT31;55512;50.102;19.958;2023-04-28T02:01:23;6.22;60.90
68511;SHT31;55512;50.102;19.958;2023-04-28T02:03:48;6.21;60.90
68511;SHT31;55512;50.102;19.958;2023-04-28T02:06:14;6.19;60.98
68511;SHT31;55512;50.102;19.958;2023-04-28T02:08:39;6.19;61.06
68511;SHT31;55512;50.102;19.958;2023-04-28T02:11:05;6.19;61.09
68511;SHT31;55512;50.102;19.958;2023-04-28T02:13:30;6.20;61.02
68511;SHT31;55512;50.102;19.958;2023-04-28T02:15:58;6.21;60.93
68511;SHT31;55512;50.102;19.958;2023-04-28T02:18:25;6.24;60.81
68511;SHT31;55512;50.102;19.958;2023-04-28T02:20:51;6.26;60.73
68511;SHT31;55512;50.102;19.958;2023-04-28T02:23:16;6.25;60.98
68511;SHT31;55512;50.102;19.958;2023-04-28T02:25:42;6.24;60.95
68511;SHT31;55512;50.102;19.958;2023-04-28T02:28:07;6.24;60.89
68511;SHT31;55512;50.102;19.958;2023-04-28T02:30:32;6.25;60.83
68511;SHT31;55512;50.102;19.958;2023-04-28T02:32:58;6.25;60.88
68511;SHT31;55512;50.102;19.958;2023-04-28T02:35:23;6.23;61.13
68511;SHT31;55512;50.102;19.958;2023-04-28T02:37:49;6.20;61.20
68511;SHT31;55512;50.102;19.958;2023-04-28T02:40:14;6.20;61.10
68511;SHT31;55512;50.102;19.958;2023-04-28T02:42:40;6.19;60.91
68511;SHT31;55512;50.102;19.958;2023-04-28T02:45:06;6.20;60.68
68511;SHT31;55512;50.102;19.958;2023-04-28T02:47:32;6.22;60.41
68511;SHT31;55512;50.102;19.958;2023-04-28T02:49:57;6.22;60.30
68511;SHT31;55512;50.102;19.958;2023-04-28T02:52:23;6.21;60.30
68511;SHT31;55512;50.102;19.958;2023-04-28T02:54:48;6.18;60.16
68511;SHT31;55512;50.102;19.958;2023-04-28T02:57:18;6.18;60.02
68511;SHT31;55512;50.102;19.958;2023-04-28T02:59:44;6.18;60.07
68511;SHT31;55512;50.102;19.958;2023-04-28T03:02:10;6.16;60.04
68511;SHT31;55512;50.102;19.958;2023-04-28T03:04:36;6.16;60.18
68511;SHT31;55512;50.102;19.958;2023-04-28T03:07:02;6.15;60.32
68511;SHT31;55512;50.102;19.958;2023-04-28T03:09:27;6.13;60.40
68511;SHT31;55512;50.102;19.958;2023-04-28T03:11:53;6.12;60.34
68511;SHT31;55512;50.102;19.958;2023-04-28T03:14:18;6.12;60.47
68511;SHT31;55512;50.102;19.958;2023-04-28T03:16:43;6.09;60.50
68511;SHT31;55512;50.102;19.958;2023-04-28T03:19:09;6.08;60.46
68511;SHT31;55512;50.102;19.958;2023-04-28T03:21:34;6.07;60.43
68511;SHT31;55512;50.102;19.958;2023-04-28T03:24:00;6.04;60.47
68511;SHT31;55512;50.102;19.958;2023-04-28T03:26:25;6.02;60.47
68511;SHT31;55512;50.102;19.958;2023-04-28T03:28:50;5.99;60.49
68511;SHT31;55512;50.102;19.958;2023-04-28T03:31:17;5.99;60.40
68511;SHT31;55512;50.102;19.958;2023-04-28T03:33:42;5.97;60.31
68511;SHT31;55512;50.102;19.958;2023-04-28T03:36:09;5.95;60.39
68511;SHT31;55512;50.102;19.958;2023-04-28T03:38:35;5.93;60.38
68511;SHT31;55512;50.102;19.958;2023-04-28T03:41:00;5.92;60.25
68511;SHT31;55512;50.102;19.958;2023-04-28T03:43:26;5.92;60.14
68511;SHT31;55512;50.102;19.958;2023-04-28T03:45:51;5.94;60.10
68511;SHT31;55512;50.102;19.958;2023-04-28T03:48:17;5.93;60.21
68511;SHT31;55512;50.102;19.958;2023-04-28T03:50:42;5.90;60.31
68511;SHT31;55512;50.102;19.958;2023-04-28T03:53:09;5.91;60.33
68511;SHT31;55512;50.102;19.958;2023-04-28T03:55:35;5.92;60.28
68511;SHT31;55512;50.102;19.958;2023-04-28T03:58:01;5.91;60.20
68511;SHT31;55512;50.102;19.958;2023-04-28T04:00:26;5.94;60.15
68511;SHT31;55512;50.102;19.958;2023-04-28T04:02:52;5.97;60.12
68511;SHT31;55512;50.102;19.958;2023-04-28T04:05:17;5.97;60.32
68511;SHT31;55512;50.102;19.958;2023-04-28T04:07:42;5.95;60.56
68511;SHT31;55512;50.102;19.958;2023-04-28T04:10:08;5.95;60.52
68511;SHT31;55512;50.102;19.958;2023-04-28T04:12:34;5.97;60.50
68511;SHT31;55512;50.102;19.958;2023-04-28T04:14:59;5.97;60.50
68511;SHT31;55512;50.102;19.958;2023-04-28T04:17:25;5.97;60.50
68511;SHT31;55512;50.102;19.958;2023-04-28T04:19:50;5.99;60.50
68511;SHT31;55512;50.102;19.958;2023-04-28T04:22:16;6.01;60.53
68511;SHT31;55512;50.102;19.958;2023-04-28T04:24:41;6.02;60.70
68511;SHT31;55512;50.102;19.958;2023-04-28T04:27:07;6.06;60.81
68511;SHT31;55512;50.102;19.958;2023-04-28T04:29:32;6.10;60.80
68511;SHT31;55512;50.102;19.958;2023-04-28T04:31:58;6.16;60.71
68511;SHT31;55512;50.102;19.958;2023-04-28T04:34:23;6.19;60.77
68511;SHT31;55512;50.102;19.958;2023-04-28T04:36:49;6.21;60.76
68511;SHT31;55512;50.102;19.958;2023-04-28T04:39:14;6.22;60.98
68511;SHT31;55512;50.102;19.958;2023-04-28T04:41:39;6.16;61.31
68511;SHT31;55512;50.102;19.958;2023-04-28T04:44:06;6.24;61.38
68511;SHT31;55512;50.102;19.958;2023-04-28T04:46:31;6.30;61.24
68511;SHT31;55512;50.102;19.958;2023-04-28T04:48:57;6.33;61.18
68511;SHT31;55512;50.102;19.958;2023-04-28T04:51:22;6.40;61.16
68511;SHT31;55512;50.102;19.958;2023-04-28T04:53:48;6.46;61.10
68511;SHT31;55512;50.102;19.958;2023-04-28T04:56:13;6.51;61.08
68511;SHT31;55512;50.102;19.958;2023-04-28T04:58:41;6.58;61.10
68511;SHT31;55512;50.102;19.958;2023-04-28T05:01:08;6.63;61.10
68511;SHT31;55512;50.102;19.958;2023-04-28T05:03:34;6.71;61.08
68511;SHT31;55512;50.102;19.958;2023-04-28T05:05:59;6.77;61.00
68511;SHT31;55512;50.102;19.958;2023-04-28T05:08:26;6.85;60.99
68511;SHT31;55512;50.102;19.958;2023-04-28T05:10:52;6.90;60.98
68511;SHT31;55512;50.102;19.958;2023-04-28T05:13:18;7.01;60.94
68511;SHT31;55512;50.102;19.958;2023-04-28T05:15:43;7.08;60.86
68511;SHT31;55512;50.102;19.958;2023-04-28T05:18:09;7.16;60.71
68511;SHT31;55512;50.102;19.958;2023-04-28T05:20:35;7.26;60.58
68511;SHT31;55512;50.102;19.958;2023-04-28T05:23:01;7.36;60.33
68511;SHT31;55512;50.102;19.958;2023-04-28T05:25:27;7.47;59.97
68511;SHT31;55512;50.102;19.958;2023-04-28T05:27:53;7.56;59.76
68511;SHT31;55512;50.102;19.958;2023-04-28T05:30:20;7.66;59.45
68511;SHT31;55512;50.102;19.958;2023-04-28T05:32:45;7.73;59.23
68511;SHT31;55512;50.102;19.958;2023-04-28T05:35:10;7.84;59.02
68511;SHT31;55512;50.102;19.958;2023-04-28T05:37:36;7.93;58.84
68511;SHT31;55512;50.102;19.958;2023-04-28T05:40:02;8.00;58.70
68511;SHT31;55512;50.102;19.958;2023-04-28T05:42:28;8.09;58.53
68511;SHT31;55512;50.102;19.958;2023-04-28T05:44:53;8.18;58.30
68511;SHT31;55512;50.102;19.958;2023-04-28T05:47:19;8.27;58.05
68511;SHT31;55512;50.102;19.958;2023-04-28T05:49:45;8.37;57.86
68511;SHT31;55512;50.102;19.958;2023-04-28T05:52:10;8.46;57.58
68511;SHT31;55512;50.102;19.958;2023-04-28T05:54:36;8.57;57.22
68511;SHT31;55512;50.102;19.958;2023-04-28T05:57:01;8.67;56.77
68511;SHT31;55512;50.102;19.958;2023-04-28T05:59:27;8.77;56.48
68511;SHT31;55512;50.102;19.958;2023-04-28T06:01:54;8.88;56.15
68511;SHT31;55512;50.102;19.958;2023-04-28T06:04:20;8.98;55.86
68511;SHT31;55512;50.102;19.958;2023-04-28T06:06:45;9.10;55.40
68511;SHT31;55512;50.102;19.958;2023-04-28T06:09:11;9.19;54.94
68511;SHT31;55512;50.102;19.958;2023-04-28T06:11:36;9.29;54.47
68511;SHT31;55512;50.102;19.958;2023-04-28T06:14:02;9.38;54.05
68511;SHT31;55512;50.102;19.958;2023-04-28T06:16:27;9.47;53.81
68511;SHT31;55512;50.102;19.958;2023-04-28T06:18:53;9.51;53.55
68511;SHT31;55512;50.102;19.958;2023-04-28T06:21:18;9.59;53.21
68511;SHT31;55512;50.102;19.958;2023-04-28T06:23:45;9.70;52.85
68511;SHT31;55512;50.102;19.958;2023-04-28T06:26:11;9.78;52.52
68511;SHT31;55512;50.102;19.958;2023-04-28T06:28:36;9.90;52.31
68511;SHT31;55512;50.102;19.958;2023-04-28T06:31:02;10.00;52.17
68511;SHT31;55512;50.102;19.958;2023-04-28T06:33:27;10.10;51.81
68511;SHT31;55512;50.102;19.958;2023-04-28T06:35:53;10.19;51.26
68511;SHT31;55512;50.102;19.958;2023-04-28T06:38:18;10.28;50.68
68511;SHT31;55512;50.102;19.958;2023-04-28T06:40:44;10.37;50.40
68511;SHT31;55512;50.102;19.958;2023-04-28T06:43:10;10.45;49.97
68511;SHT31;55512;50.102;19.958;2023-04-28T06:45:36;10.55;49.74
68511;SHT31;55512;50.102;19.958;2023-04-28T06:48:03;10.66;49.78
68511;SHT31;55512;50.102;19.958;2023-04-28T06:50:30;10.77;49.59
68511;SHT31;55512;50.102;19.958;2023-04-28T06:52:55;10.89;49.33
68511;SHT31;55512;50.102;19.958;2023-04-28T06:55:21;11.00;48.93
68511;SHT31;55512;50.102;19.958;2023-04-28T06:57:47;11.10;48.47
68511;SHT31;55512;50.102;19.958;2023-04-28T07:00:13;11.20;48.26
68511;SHT31;55512;50.102;19.958;2023-04-28T07:02:39;11.30;47.89
68511;SHT31;55512;50.102;19.958;2023-04-28T07:05:05;11.41;47.66
68511;SHT31;55512;50.102;19.958;2023-04-28T07:07:31;11.51;47.34
68511;SHT31;55512;50.102;19.958;2023-04-28T07:09:56;11.62;47.04
68511;SHT31;55512;50.102;19.958;2023-04-28T07:12:23;11.72;46.73
68511;SHT31;55512;50.102;19.958;2023-04-28T07:14:48;11.81;46.21
68511;SHT31;55512;50.102;19.958;2023-04-28T07:17:15;11.91;45.66
68511;SHT31;55512;50.102;19.958;2023-04-28T07:19:40;11.99;45.54
68511;SHT31;55512;50.102;19.958;2023-04-28T07:22:06;12.09;45.20
68511;SHT31;55512;50.102;19.958;2023-04-28T07:24:32;12.17;45.01
68511;SHT31;55512;50.102;19.958;2023-04-28T07:26:57;12.24;45.04
68511;SHT31;55512;50.102;19.958;2023-04-28T07:29:22;12.31;44.93
68511;SHT31;55512;50.102;19.958;2023-04-28T07:31:48;12.40;44.82
68511;SHT31;55512;50.102;19.958;2023-04-28T07:34:14;12.49;44.68
68511;SHT31;55512;50.102;19.958;2023-04-28T07:36:40;12.61;43.91
68511;SHT31;55512;50.102;19.958;2023-04-28T07:39:06;12.73;43.36
68511;SHT31;55512;50.102;19.958;2023-04-28T07:41:35;12.85;43.02
68511;SHT31;55512;50.102;19.958;2023-04-28T07:44:02;12.98;42.62
68511;SHT31;55512;50.102;19.958;2023-04-28T07:46:30;13.10;42.04
68511;SHT31;55512;50.102;19.958;2023-04-28T07:48:56;13.21;41.81
68511;SHT31;55512;50.102;19.958;2023-04-28T07:51:21;13.33;41.45
68511;SHT31;55512;50.102;19.958;2023-04-28T07:53:47;13.43;41.36
68511;SHT31;55512;50.102;19.958;2023-04-28T07:56:12;13.54;40.88
68511;SHT31;55512;50.102;19.958;2023-04-28T07:58:38;13.65;40.13
68511;SHT31;55512;50.102;19.958;2023-04-28T08:01:03;13.74;40.15
68511;SHT31;55512;50.102;19.958;2023-04-28T08:03:29;13.85;39.72
68511;SHT31;55512;50.102;19.958;2023-04-28T08:05:55;13.96;39.57
68511;SHT31;55512;50.102;19.958;2023-04-28T08:08:21;14.06;39.86
68511;SHT31;55512;50.102;19.958;2023-04-28T08:10:46;14.14;39.33
68511;SHT31;55512;50.102;19.958;2023-04-28T08:13:13;14.23;38.80
68511;SHT31;55512;50.102;19.958;2023-04-28T08:15:40;14.31;38.53
68511;SHT31;55512;50.102;19.958;2023-04-28T08:18:06;14.38;38.25
68511;SHT31;55512;50.102;19.958;2023-04-28T08:20:32;14.45;38.00
68511;SHT31;55512;50.102;19.958;2023-04-28T08:22:58;14.51;37.81
68511;SHT31;55512;50.102;19.958;2023-04-28T08:25:24;14.59;37.86
68511;SHT31;55512;50.102;19.958;2023-04-28T08:27:50;14.70;37.60
68511;SHT31;55512;50.102;19.958;2023-04-28T08:30:15;14.74;37.30
68511;SHT31;55512;50.102;19.958;2023-04-28T08:32:41;14.76;36.63
68511;SHT31;55512;50.102;19.958;2023-04-28T08:35:06;14.80;36.95
68511;SHT31;55512;50.102;19.958;2023-04-28T08:37:32;14.87;36.81
68511;SHT31;55512;50.102;19.958;2023-04-28T08:39:58;14.93;36.66
68511;SHT31;55512;50.102;19.958;2023-04-28T08:42:28;15.02;35.99
68511;SHT31;55512;50.102;19.958;2023-04-28T08:44:56;15.06;35.49
68511;SHT31;55512;50.102;19.958;2023-04-28T08:47:28;15.08;35.29
68511;SHT31;55512;50.102;19.958;2023-04-28T08:50:03;15.15;34.93
68511;SHT31;55512;50.102;19.958;2023-04-28T08:52:30;15.23;34.34
68511;SHT31;55512;50.102;19.958;2023-04-28T08:54:57;15.29;34.01
68511;SHT31;55512;50.102;19.958;2023-04-28T08:57:27;15.34;33.86
68511;SHT31;55512;50.102;19.958;2023-04-28T09:00:08;15.42;33.58
68511;SHT31;55512;50.102;19.958;2023-04-28T09:02:35;15.50;33.31
68511;SHT31;55512;50.102;19.958;2023-04-28T09:05:02;15.56;33.08
68511;SHT31;55512;50.102;19.958;2023-04-28T09:07:31;15.63;32.77
68511;SHT31;55512;50.102;19.958;2023-04-28T09:12:52;15.66;32.25
68511;SHT31;55512;50.102;19.958;2023-04-28T09:15:36;15.65;32.40
68511;SHT31;55512;50.102;19.958;2023-04-28T09:18:06;15.68;32.46
68511;SHT31;55512;50.102;19.958;2023-04-28T09:20:33;15.71;32.10
68511;SHT31;55512;50.102;19.958;2023-04-28T09:23:17;15.70;31.79
68511;SHT31;55512;50.102;19.958;2023-04-28T09:25:57;15.71;31.87
68511;SHT31;55512;50.102;19.958;2023-04-28T09:28:31;15.74;31.68
68511;SHT31;55512;50.102;19.958;2023-04-28T09:30:58;15.74;31.71
68511;SHT31;55512;50.102;19.958;2023-04-28T09:33:25;15.77;31.91
68511;SHT31;55512;50.102;19.958;2023-04-28T09:35:51;15.83;32.14
68511;SHT31;55512;50.102;19.958;2023-04-28T09:38:18;15.89;31.93
68511;SHT31;55512;50.102;19.958;2023-04-28T09:40:52;15.94;31.76
68511;SHT31;55512;50.102;19.958;2023-04-28T09:43:25;15.98;31.84
68511;SHT31;55512;50.102;19.958;2023-04-28T09:45:54;16.03;31.89
68511;SHT31;55512;50.102;19.958;2023-04-28T09:48:28;16.10;32.02
68511;SHT31;55512;50.102;19.958;2023-04-28T09:50:55;16.17;31.84
68511;SHT31;55512;50.102;19.958;2023-04-28T09:53:23;16.21;31.33
68511;SHT31;55512;50.102;19.958;2023-04-28T09:55:54;16.19;30.75
68511;SHT31;55512;50.102;19.958;2023-04-28T09:58:23;16.12;30.66
68511;SHT31;55512;50.102;19.958;2023-04-28T10:00:51;16.10;30.67
68511;SHT31;55512;50.102;19.958;2023-04-28T10:03:22;16.08;30.67
68511;SHT31;55512;50.102;19.958;2023-04-28T10:05:50;16.09;30.76
68511;SHT31;55512;50.102;19.958;2023-04-28T10:08:17;16.10;30.54
68511;SHT31;55512;50.102;19.958;2023-04-28T10:10:49;16.10;30.79
68511;SHT31;55512;50.102;19.958;2023-04-28T10:13:21;16.15;30.89
68511;SHT31;55512;50.102;19.958;2023-04-28T10:15:50;16.21;30.73
68511;SHT31;55512;50.102;19.958;2023-04-28T10:18:19;16.30;31.06
68511;SHT31;55512;50.102;19.958;2023-04-28T10:20:48;16.43;30.96
68511;SHT31;55512;50.102;19.958;2023-04-28T10:23:30;16.54;30.72
68511;SHT31;55512;50.102;19.958;2023-04-28T10:26:11;16.66;30.70
68511;SHT31;55512;50.102;19.958;2023-04-28T10:28:45;16.76;30.77
68511;SHT31;55512;50.102;19.958;2023-04-28T10:31:14;16.91;30.88
68511;SHT31;55512;50.102;19.958;2023-04-28T10:33:44;17.05;30.75
68511;SHT31;55512;50.102;19.958;2023-04-28T10:36:17;17.16;30.50
68511;SHT31;55512;50.102;19.958;2023-04-28T10:39:17;17.26;30.49
68511;SHT31;55512;50.102;19.958;2023-04-28T10:41:44;17.38;30.76
68511;SHT31;55512;50.102;19.958;2023-04-28T10:47:10;17.56;30.25
68511;SHT31;55512;50.102;19.958;2023-04-28T11:00:40;17.72;29.61
68511;SHT31;55512;50.102;19.958;2023-04-28T11:03:35;17.70;29.18
68511;SHT31;55512;50.102;19.958;2023-04-28T11:06:22;17.60;28.98
68511;SHT31;55512;50.102;19.958;2023-04-28T11:08:56;17.57;29.34
68511;SHT31;55512;50.102;19.958;2023-04-28T11:11:38;17.59;29.23
68511;SHT31;55512;50.102;19.958;2023-04-28T11:17:03;17.68;29.41
68511;SHT31;55512;50.102;19.958;2023-04-28T11:19:32;17.77;29.34
68511;SHT31;55512;50.102;19.958;2023-04-28T11:22:04;17.84;29.11
68511;SHT31;55512;50.102;19.958;2023-04-28T11:24:37;17.87;28.73
68511;SHT31;55512;50.102;19.958;2023-04-28T11:27:03;17.85;28.64
68511;SHT31;55512;50.102;19.958;2023-04-28T11:29:36;17.84;28.56
68511;SHT31;55512;50.102;19.958;2023-04-28T11:32:04;17.82;28.76
68511;SHT31;55512;50.102;19.958;2023-04-28T11:34:32;17.83;28.31
68511;SHT31;55512;50.102;19.958;2023-04-28T11:36:58;17.80;28.14
68511;SHT31;55512;50.102;19.958;2023-04-28T11:39:28;17.75;28.32
68511;SHT31;55512;50.102;19.958;2023-04-28T11:41:57;17.68;28.54
68511;SHT31;55512;50.102;19.958;2023-04-28T11:44:27;17.67;28.25
68511;SHT31;55512;50.102;19.958;2023-04-28T11:46:55;17.65;28.31
68511;SHT31;55512;50.102;19.958;2023-04-28T11:49:26;17.70;28.63
68511;SHT31;55512;50.102;19.958;2023-04-28T11:52:05;17.82;28.67
68511;SHT31;55512;50.102;19.958;2023-04-28T11:54:32;17.93;28.53
68511;SHT31;55512;50.102;19.958;2023-04-28T11:56:59;18.02;28.54
68511;SHT31;55512;50.102;19.958;2023-04-28T11:59:28;18.08;28.33
68511;SHT31;55512;50.102;19.958;2023-04-28T12:01:58;18.17;28.40
68511;SHT31;55512;50.102;19.958;2023-04-28T12:06:57;18.43;28.45
68511;SHT31;55512;50.102;19.958;2023-04-28T12:09:29;18.56;28.33
68511;SHT31;55512;50.102;19.958;2023-04-28T12:11:56;18.68;28.30
68511;SHT31;55512;50.102;19.958;2023-04-28T12:14:27;18.81;28.04
68511;SHT31;55512;50.102;19.958;2023-04-28T12:16:54;18.84;27.57
68511;SHT31;55512;50.102;19.958;2023-04-28T12:19:20;18.92;28.31
68511;SHT31;55512;50.102;19.958;2023-04-28T12:22:05;19.09;28.07
68511;SHT31;55512;50.102;19.958;2023-04-28T12:24:31;19.19;27.48
68511;SHT31;55512;50.102;19.958;2023-04-28T12:29:44;19.39;27.86
68511;SHT31;55512;50.102;19.958;2023-04-28T12:32:13;19.58;27.80
68511;SHT31;55512;50.102;19.958;2023-04-28T12:34:39;19.70;27.07
68511;SHT31;55512;50.102;19.958;2023-04-28T12:37:07;19.79;27.31
68511;SHT31;55512;50.102;19.958;2023-04-28T12:39:33;19.95;27.28
68511;SHT31;55512;50.102;19.958;2023-04-28T12:42:01;20.10;26.70
68511;SHT31;55512;50.102;19.958;2023-04-28T12:44:37;20.12;25.54
68511;SHT31;55512;50.102;19.958;2023-04-28T12:47:06;20.07;25.67
68511;SHT31;55512;50.102;19.958;2023-04-28T12:49:34;20.01;25.36
68511;SHT31;55512;50.102;19.958;2023-04-28T12:52:00;19.95;25.55
68511;SHT31;55512;50.102;19.958;2023-04-28T12:54:27;20.00;25.71
68511;SHT31;55512;50.102;19.958;2023-04-28T12:56:53;20.12;25.93
68511;SHT31;55512;50.102;19.958;2023-04-28T12:59:18;20.29;25.89
68511;SHT31;55512;50.102;19.958;2023-04-28T13:01:45;20.47;25.61
68511;SHT31;55512;50.102;19.958;2023-04-28T13:04:11;20.65;25.34
68511;SHT31;55512;50.102;19.958;2023-04-28T13:06:37;20.78;24.96
68511;SHT31;55512;50.102;19.958;2023-04-28T13:09:04;20.84;25.16
68511;SHT31;55512;50.102;19.958;2023-04-28T13:11:30;21.00;25.35
68511;SHT31;55512;50.102;19.958;2023-04-28T13:13:56;21.14;24.88
68511;SHT31;55512;50.102;19.958;2023-04-28T13:16:22;21.07;24.79
68511;SHT31;55512;50.102;19.958;2023-04-28T13:18:53;21.10;24.82
68511;SHT31;55512;50.102;19.958;2023-04-28T13:21:20;21.22;24.86
68511;SHT31;55512;50.102;19.958;2023-04-28T13:23:48;21.39;25.09
68511;SHT31;55512;50.102;19.958;2023-04-28T13:26:13;21.57;24.77
68511;SHT31;55512;50.102;19.958;2023-04-28T13:28:39;21.74;24.91
68511;SHT31;55512;50.102;19.958;2023-04-28T13:31:04;21.89;24.42
68511;SHT31;55512;50.102;19.958;2023-04-28T13:33:30;21.99;24.56
68511;SHT31;55512;50.102;19.958;2023-04-28T13:35:56;22.19;24.39
68511;SHT31;55512;50.102;19.958;2023-04-28T13:38:23;22.34;23.97
68511;SHT31;55512;50.102;19.958;2023-04-28T13:40:50;22.51;23.97
68511;SHT31;55512;50.102;19.958;2023-04-28T13:43:16;22.70;23.98
68511;SHT31;55512;50.102;19.958;2023-04-28T13:45:42;22.88;23.92
68511;SHT31;55512;50.102;19.958;2023-04-28T13:48:07;23.04;23.75
68511;SHT31;55512;50.102;19.958;2023-04-28T13:50:33;23.19;23.79
68511;SHT31;55512;50.102;19.958;2023-04-28T13:52:59;23.40;23.91
68511;SHT31;55512;50.102;19.958;2023-04-28T13:55:24;23.62;23.60
68511;SHT31;55512;50.102;19.958;2023-04-28T13:57:52;23.80;23.51
68511;SHT31;55512;50.102;19.958;2023-04-28T14:00:19;24.03;23.31
68511;SHT31;55512;50.102;19.958;2023-04-28T14:02:45;24.21;23.22
68511;SHT31;55512;50.102;19.958;2023-04-28T14:05:13;24.37;22.94
68511;SHT31;55512;50.102;19.958;2023-04-28T14:07:40;24.65;22.77
68511;SHT31;55512;50.102;19.958;2023-04-28T14:10:07;24.78;22.41
68511;SHT31;55512;50.102;19.958;2023-04-28T14:12:33;24.79;22.34
68511;SHT31;55512;50.102;19.958;2023-04-28T14:14:58;24.86;22.64
68511;SHT31;55512;50.102;19.958;2023-04-28T14:17:23;25.05;22.75
68511;SHT31;55512;50.102;19.958;2023-04-28T14:19:49;25.26;22.67
68511;SHT31;55512;50.102;19.958;2023-04-28T14:22:15;25.24;22.03
68511;SHT31;55512;50.102;19.958;2023-04-28T14:24:40;25.10;22.70
68511;SHT31;55512;50.102;19.958;2023-04-28T14:27:07;25.40;22.66
68511;SHT31;55512;50.102;19.958;2023-04-28T14:29:33;25.78;22.25
68511;SHT31;55512;50.102;19.958;2023-04-28T14:31:59;26.33;22.01
68511;SHT31;55512;50.102;19.958;2023-04-28T14:34:24;27.36;21.32
68511;SHT31;55512;50.102;19.958;2023-04-28T14:36:50;28.85;20.48
68511;SHT31;55512;50.102;19.958;2023-04-28T14:39:16;30.62;19.41
68511;SHT31;55512;50.102;19.958;2023-04-28T14:41:42;32.39;18.44
68511;SHT31;55512;50.102;19.958;2023-04-28T14:44:07;33.93;17.69
68511;SHT31;55512;50.102;19.958;2023-04-28T14:46:33;35.46;16.88
68511;SHT31;55512;50.102;19.958;2023-04-28T14:49:00;36.60;16.70
68511;SHT31;55512;50.102;19.958;2023-04-28T14:51:27;37.90;15.96
68511;SHT31;55512;50.102;19.958;2023-04-28T14:53:53;38.84;15.29
68511;SHT31;55512;50.102;19.958;2023-04-28T14:56:19;39.15;14.40
68511;SHT31;55512;50.102;19.958;2023-04-28T14:58:44;38.53;13.98
68511;SHT31;55512;50.102;19.958;2023-04-28T15:01:13;38.24;14.22
68511;SHT31;55512;50.102;19.958;2023-04-28T15:03:38;38.44;14.59
68511;SHT31;55512;50.102;19.958;2023-04-28T15:06:04;38.42;14.46
68511;SHT31;55512;50.102;19.958;2023-04-28T15:08:30;38.37;14.48
68511;SHT31;55512;50.102;19.958;2023-04-28T15:10:57;38.60;14.42
68511;SHT31;55512;50.102;19.958;2023-04-28T15:13:22;38.26;14.33
68511;SHT31;55512;50.102;19.958;2023-04-28T15:15:52;37.82;14.35
68511;SHT31;55512;50.102;19.958;2023-04-28T15:18:17;37.68;14.20
68511;SHT31;55512;50.102;19.958;2023-04-28T15:20:43;37.44;14.30
68511;SHT31;55512;50.102;19.958;2023-04-28T15:23:09;37.21;14.35
68511;SHT31;55512;50.102;19.958;2023-04-28T15:25:35;36.28;14.52
68511;SHT31;55512;50.102;19.958;2023-04-28T15:28:01;35.59;14.64
68511;SHT31;55512;50.102;19.958;2023-04-28T15:30:28;34.80;14.87
68511;SHT31;55512;50.102;19.958;2023-04-28T15:32:53;33.77;15.23
68511;SHT31;55512;50.102;19.958;2023-04-28T15:35:19;33.11;15.52
68511;SHT31;55512;50.102;19.958;2023-04-28T15:37:46;32.73;15.66
68511;SHT31;55512;50.102;19.958;2023-04-28T15:40:12;32.87;15.73
68511;SHT31;55512;50.102;19.958;2023-04-28T15:42:41;33.38;15.59
68511;SHT31;55512;50.102;19.958;2023-04-28T15:45:09;33.55;15.48
68511;SHT31;55512;50.102;19.958;2023-04-28T15:47:35;33.22;15.68